Tice, Illinois
Current Conditions -  °F | °C
As of 6:52 PM on Sunday 23 Nov 2014 (Local Time) from KSPI Reporting Station
Light Rain Light Rain  
Wind Chill: 52°   Ceiling: 600
Heat Index: 52°   Visibility: 6mi
Dew Point: 50°   Wind: 8mph
Humidity: 93%   Direction: 150°SSE
Pressure: 29.28"   Gusts: NA
Location:  40.0452°N, 89.8548°W
Report Text: KSPI 240052Z 15007KT 6SM -RA BR OVC006 11/10 A2928 RMK AO2 SLP916 P0009 T01110100
Loading
Personal Weather Stations






























Interactive Weather Map New forecast layout! Learn more

10-Day Weather Forecast

Advertisements
Track Severe Weather on mobile